Time;durP1;ratioP1;P1;durP2;ratioP2;P2;SDS_P1;SDS_P2;PMS_P1;PMS_P2;Temp;Humidity;BMP_temperature;BMP_pressure;BME280_temperature;BME280_humidity;BME280_pressure;Samples;Min_cycle;Max_cycle;Signal;HPM_P1;HPM_P2
2023/10/16 00:01:03;;;;;;;3.53;1.77;;;;;;;22.77;49.88;98556.41;2081715;28;20482;-67
2023/10/16 00:02:06;;;;;;;5.05;1.90;;;;;;;22.78;49.62;98557.25;2082832;28;20132;-66
2023/10/16 00:03:07;;;;;;;6.47;1.60;;;;;;;22.78;49.82;98547.25;2081637;28;20042;-67
2023/10/16 00:04:11;;;;;;;5.15;1.85;;;;;;;22.77;49.57;98552.91;2079963;28;20049;-67
2023/10/16 00:05:14;;;;;;;3.58;1.42;;;;;;;22.77;49.66;98561.81;2079123;28;21256;-66
2023/10/16 00:06:17;;;;;;;4.13;2.00;;;;;;;22.75;49.69;98555.81;2082796;28;20072;-67
2023/10/16 00:07:20;;;;;;;6.30;1.90;;;;;;;22.77;49.67;98558.31;2080013;28;20045;-66
2023/10/16 00:08:23;;;;;;;5.90;1.80;;;;;;;22.76;49.67;98557.47;2083901;28;20500;-67
2023/10/16 00:09:25;;;;;;;3.45;1.67;;;;;;;22.77;49.79;98556.41;2079845;28;20049;-67
2023/10/16 00:10:29;;;;;;;7.78;2.70;;;;;;;22.77;49.69;98564.53;2080774;28;20455;-67
2023/10/16 00:11:30;;;;;;;6.22;1.98;;;;;;;22.78;49.71;98554.53;2079142;28;20435;-66
2023/10/16 00:12:32;;;;;;;2.15;1.45;;;;;;;22.74;49.91;98559.59;2063771;28;21356;-67
2023/10/16 00:13:37;;;;;;;3.38;1.40;;;;;;;22.76;49.73;98554.75;2076413;28;20118;-67
2023/10/16 00:14:39;;;;;;;2.70;1.30;;;;;;;22.76;49.79;98557.47;2081608;28;20051;-66
2023/10/16 00:15:40;;;;;;;4.78;1.38;;;;;;;22.77;49.84;98558.31;2079030;28;20045;-66
2023/10/16 00:16:44;;;;;;;3.22;1.40;;;;;;;22.78;49.70;98558.06;2083063;28;20626;-66
2023/10/16 00:17:45;;;;;;;6.07;2.20;;;;;;;22.77;49.70;98550.19;2081267;28;20086;-67
2023/10/16 00:18:48;;;;;;;4.82;2.00;;;;;;;22.78;50.04;98552.66;2081451;28;20162;-67
2023/10/16 00:19:54;;;;;;;5.75;2.03;;;;;;;22.78;49.74;98559.94;2082319;28;20064;-67
2023/10/16 00:20:55;;;;;;;4.40;1.67;;;;;;;22.77;49.97;98561.00;2079307;28;20041;-66
2023/10/16 00:21:57;;;;;;;2.80;1.55;;;;;;;22.79;50.17;98548.91;2076196;28;20060;-66
2023/10/16 00:22:58;;;;;;;6.93;1.58;;;;;;;22.78;49.95;98554.53;2076340;28;20049;-67
2023/10/16 00:24:00;;;;;;;4.25;1.42;;;;;;;22.78;49.77;98554.53;2075781;28;20045;-66
2023/10/16 00:25:01;;;;;;;3.78;1.58;;;;;;;22.79;49.88;98550.75;2075375;28;20054;-66
2023/10/16 00:26:06;;;;;;;8.00;2.50;;;;;;;22.76;49.78;98552.06;2077018;28;20071;-67
2023/10/16 00:27:09;;;;;;;2.83;1.63;;;;;;;22.76;49.75;98554.75;2082595;28;20046;-66
2023/10/16 00:28:11;;;;;;;2.10;1.30;;;;;;;22.74;49.75;98555.00;2075091;28;20138;-66
2023/10/16 00:29:19;;;;;;;3.53;1.55;;;;;;;22.75;49.81;98561.22;2077596;28;20060;-67
2023/10/16 00:30:21;;;;;;;7.47;1.75;;;;;;;22.73;49.68;98553.38;2075800;28;20060;-66
2023/10/16 00:31:23;;;;;;;4.15;1.85;;;;;;;22.76;49.68;98557.47;2077249;28;20135;-67
2023/10/16 00:32:24;;;;;;;3.15;1.60;;;;;;;22.76;49.66;98568.28;2080976;28;20060;-67
2023/10/16 00:33:26;;;;;;;1.65;1.30;;;;;;;22.77;49.86;98567.25;2076303;28;20136;-66
2023/10/16 00:34:28;;;;;;;3.78;1.77;;;;;;;22.75;49.73;98562.03;2079125;28;20057;-67
2023/10/16 00:35:30;;;;;;;5.60;1.63;;;;;;;22.76;49.86;98562.88;2080035;28;20053;-67
2023/10/16 00:36:31;;;;;;;4.75;1.65;;;;;;;22.75;49.79;98555.81;2075231;28;20064;-67
2023/10/16 00:37:33;;;;;;;3.55;1.67;;;;;;;22.75;49.83;98558.53;2078449;28;20128;-67
2023/10/16 00:38:37;;;;;;;2.92;1.50;;;;;;;22.77;49.66;98558.31;2075048;28;20045;-67
2023/10/16 00:39:39;;;;;;;3.95;1.33;;;;;;;22.77;49.60;98552.91;2075140;28;20076;-66
2023/10/16 00:40:40;;;;;;;2.10;1.85;;;;;;;22.76;49.59;98552.06;2079126;28;20530;-66
2023/10/16 00:41:44;;;;;;;4.03;1.58;;;;;;;22.75;49.84;98551.22;2077425;28;20521;-66
2023/10/16 00:42:48;;;;;;;7.93;1.88;;;;;;;22.75;50.03;98558.53;2079564;28;20052;-67
2023/10/16 00:43:49;;;;;;;4.90;1.70;;;;;;;22.74;49.65;98552.31;2077291;28;20041;-67
2023/10/16 00:44:59;;;;;;;11.93;2.75;;;;;;;22.75;49.80;98553.13;2075709;28;20476;-66
2023/10/16 00:46:05;;;;;;;4.57;1.40;;;;;;;22.74;49.64;98560.41;2078175;28;20052;-67
2023/10/16 00:47:09;;;;;;;2.67;1.83;;;;;;;22.75;49.86;98562.03;2072283;28;20056;-67
2023/10/16 00:48:10;;;;;;;2.73;1.77;;;;;;;22.74;49.61;98552.31;2032402;28;1215452;-67
2023/10/16 00:49:13;;;;;;;3.05;1.00;;;;;;;22.76;49.52;98565.56;2079297;28;20424;-67
2023/10/16 00:50:15;;;;;;;4.88;1.90;;;;;;;22.73;49.53;98557.94;2078348;28;20136;-66
2023/10/16 00:51:16;;;;;;;4.57;1.50;;;;;;;22.73;49.66;98564.19;2076572;28;20068;-66
2023/10/16 00:52:20;;;;;;;4.63;1.40;;;;;;;22.73;49.60;98555.22;2080961;28;20045;-66
2023/10/16 00:53:23;;;;;;;2.22;1.45;;;;;;;22.73;49.49;98556.06;2078268;28;20076;-66
2023/10/16 00:54:30;;;;;;;3.85;1.83;;;;;;;22.75;49.56;98555.81;2079207;28;20056;-67
2023/10/16 00:55:31;;;;;;;2.25;1.70;;;;;;;22.73;49.29;98563.34;2079338;28;20052;-67
2023/10/16 00:56:33;;;;;;;3.70;1.52;;;;;;;22.73;49.53;98553.38;2081055;28;20060;-66
2023/10/16 00:57:36;;;;;;;4.32;1.30;;;;;;;22.76;49.76;98554.75;2081219;28;20487;-67
2023/10/16 00:58:38;;;;;;;3.30;1.80;;;;;;;22.74;49.55;98556.88;2080299;28;20049;-67
2023/10/16 00:59:41;;;;;;;4.75;1.75;;;;;;;22.72;49.28;98559.00;2080557;28;20080;-67
2023/10/16 01:00:45;;;;;;;3.65;1.20;;;;;;;22.70;49.45;98556.50;2077521;28;20052;-67
2023/10/16 01:01:48;;;;;;;3.38;1.40;;;;;;;22.70;49.40;98558.38;2077892;28;20047;-66
2023/10/16 01:02:48;;;;;;;3.88;1.70;;;;;;;22.70;49.45;98552.97;2077217;28;20500;-67
2023/10/16 01:03:50;;;;;;;3.30;1.58;;;;;;;22.72;49.30;98559.00;2075871;28;20044;-67
2023/10/16 01:04:52;;;;;;;1.92;1.63;;;;;;;22.72;49.28;98559.81;2070841;28;20045;-66
2023/10/16 01:05:53;;;;;;;2.17;1.42;;;;;;;22.72;49.35;98559.81;2074630;28;20054;-67
2023/10/16 01:06:55;;;;;;;3.78;1.65;;;;;;;22.71;49.26;98560.88;2078851;28;20828;-67
2023/10/16 01:07:58;;;;;;;3.30;1.55;;;;;;;22.73;49.30;98552.53;2077586;28;20042;-66
2023/10/16 01:08:59;;;;;;;2.15;1.52;;;;;;;22.72;49.13;98550.88;2076589;28;20052;-66
2023/10/16 01:10:00;;;;;;;2.20;1.23;;;;;;;22.71;49.08;98554.66;2076146;28;20061;-67
2023/10/16 01:11:02;;;;;;;1.83;1.13;;;;;;;22.68;49.29;98553.22;2076795;28;20435;-66
2023/10/16 01:12:07;;;;;;;1.15;1.00;;;;;;;22.68;49.08;98558.63;2076777;28;20068;-67
2023/10/16 01:13:12;;;;;;;1.67;1.33;;;;;;;22.68;49.04;98555.13;2076841;28;20722;-66
2023/10/16 01:14:13;;;;;;;3.72;1.55;;;;;;;22.67;49.22;98556.97;2076165;28;20060;-67
2023/10/16 01:15:15;;;;;;;2.92;1.00;;;;;;;22.67;49.01;98564.25;2077009;28;20055;-66
2023/10/16 01:16:17;;;;;;;2.17;1.17;;;;;;;22.67;49.32;98559.69;2077233;28;20120;-67
2023/10/16 01:17:29;;;;;;;6.70;2.03;;;;;;;22.67;49.11;98553.44;2076591;28;20959;-66
2023/10/16 01:18:31;;;;;;;3.95;1.38;;;;;;;22.67;49.10;98561.56;2079105;28;20057;-67
2023/10/16 01:19:34;;;;;;;4.45;1.45;;;;;;;22.67;49.25;98559.69;2077317;28;20442;-67
2023/10/16 01:20:35;;;;;;;1.42;1.15;;;;;;;22.68;49.15;98549.72;2078315;28;20065;-67
2023/10/16 01:21:37;;;;;;;4.20;1.60;;;;;;;22.67;49.03;98556.16;2081505;28;20658;-67
2023/10/16 01:22:38;;;;;;;4.63;1.50;;;;;;;22.66;49.04;98559.94;2076220;28;20056;-67
2023/10/16 01:23:44;;;;;;;3.90;1.30;;;;;;;22.67;49.20;98561.56;2077336;28;20427;-67
2023/10/16 01:24:45;;;;;;;2.00;1.02;;;;;;;22.65;49.26;98559.09;2080233;28;20045;-66
2023/10/16 01:25:48;;;;;;;3.47;1.30;;;;;;;22.67;49.15;98564.25;2075121;28;20746;-66
2023/10/16 01:26:49;;;;;;;3.70;1.52;;;;;;;22.66;49.11;98563.44;2080417;28;20140;-67
2023/10/16 01:27:50;;;;;;;2.90;1.33;;;;;;;22.67;49.06;98564.25;2068796;28;20068;-67
2023/10/16 01:28:54;;;;;;;2.65;1.38;;;;;;;22.64;49.12;98565.56;2076245;28;20052;-66
2023/10/16 01:29:59;;;;;;;2.13;0.93;;;;;;;22.64;49.17;98562.03;2078463;28;20075;-66
2023/10/16 01:31:01;;;;;;;2.92;1.25;;;;;;;22.65;49.07;98569.91;2077089;28;20049;-67
2023/10/16 01:32:04;;;;;;;2.97;1.77;;;;;;;22.65;49.13;98567.22;2077499;28;20049;-67
2023/10/16 01:33:07;;;;;;;3.00;0.88;;;;;;;22.65;48.97;98569.06;2079850;28;20522;-66
2023/10/16 01:34:10;;;;;;;5.43;1.33;;;;;;;22.68;49.10;98572.16;2078368;28;20587;-67
2023/10/16 01:35:13;;;;;;;2.72;1.15;;;;;;;22.69;49.18;98567.56;2077682;28;20883;-67
2023/10/16 01:36:14;;;;;;;3.15;1.88;;;;;;;22.67;49.15;98575.06;2081497;28;20116;-66
2023/10/16 01:37:18;;;;;;;5.57;1.23;;;;;;;22.66;49.17;98576.16;2081742;28;20061;-67
2023/10/16 01:38:19;;;;;;;4.90;1.65;;;;;;;22.65;49.03;98572.63;2080832;28;21381;-66
2023/10/16 01:40:47;;;;;;;2.70;1.20;;;;;;;22.64;49.27;98573.66;2077233;28;20591;-66
2023/10/16 01:41:52;;;;;;;2.45;1.13;;;;;;;22.64;49.36;98575.53;2081772;28;20044;-66
2023/10/16 01:42:54;;;;;;;3.10;1.67;;;;;;;22.63;49.20;98566.63;2083280;28;20132;-67
2023/10/16 01:43:58;;;;;;;1.73;1.30;;;;;;;22.65;49.33;98566.38;2080455;28;20116;-66
2023/10/16 01:44:59;;;;;;;2.22;1.20;;;;;;;22.66;49.21;98576.16;2080712;28;20685;-67
2023/10/16 01:46:03;;;;;;;5.65;2.35;;;;;;;22.64;49.12;98579.06;2079276;28;20544;-67
2023/10/16 01:47:13;;;;;;;3.42;1.00;;;;;;;22.63;49.30;98577.44;2077927;28;20110;-66
2023/10/16 01:48:14;;;;;;;3.60;1.55;;;;;;;22.62;49.00;98577.66;2081815;28;20133;-67
2023/10/16 01:49:15;;;;;;;;;;;;;;;22.53;49.14;98569.88;2078680;28;20045;-67
2023/10/16 01:50:23;;;;;;;1.80;1.02;;;;;;;22.58;49.25;98581.88;2075961;28;19979;-67
2023/10/16 01:51:29;;;;;;;2.60;1.33;;;;;;;22.57;49.08;98575.66;2082198;28;20060;-67
2023/10/16 01:52:33;;;;;;;1.65;1.10;;;;;;;22.61;49.01;98576.00;2079778;28;20068;-66
2023/10/16 01:53:39;;;;;;;3.38;1.20;;;;;;;22.61;49.22;98576.81;2078571;28;20053;-67
2023/10/16 01:54:44;;;;;;;6.03;1.08;;;;;;;22.61;49.28;98571.41;2084544;28;20056;-67
2023/10/16 01:55:51;;;;;;;6.50;2.10;;;;;;;22.62;49.03;98575.78;2079837;28;20057;-67
2023/10/16 01:56:52;;;;;;;2.10;1.10;;;;;;;22.64;49.03;98570.97;2081121;28;20053;-67
2023/10/16 01:57:53;;;;;;;1.45;1.10;;;;;;;22.64;49.12;98567.44;2081361;28;20049;-66
2023/10/16 01:58:56;;;;;;;2.25;0.90;;;;;;;22.63;49.22;98568.50;2070139;28;20070;-66
2023/10/16 01:59:58;;;;;;;1.42;1.00;;;;;;;22.63;48.99;98571.19;2083590;28;20045;-67
2023/10/16 02:00:59;;;;;;;2.13;1.13;;;;;;;22.63;49.14;98568.50;2081159;28;20053;-66
2023/10/16 02:02:01;;;;;;;4.82;1.30;;;;;;;22.63;48.85;98573.91;2077185;28;20053;-67
2023/10/16 02:03:08;;;;;;;2.75;0.70;;;;;;;22.62;48.90;98569.53;2078830;28;20117;-66
2023/10/16 02:04:10;;;;;;;1.20;1.02;;;;;;;22.63;49.15;98574.72;2079087;28;20136;-67
2023/10/16 02:05:11;;;;;;;2.60;0.93;;;;;;;22.61;48.92;98571.41;2079735;28;20049;-66
2023/10/16 02:06:13;;;;;;;3.92;1.00;;;;;;;22.61;49.01;98560.59;2079909;28;20133;-67
2023/10/16 02:07:14;;;;;;;2.25;1.35;;;;;;;22.62;48.87;98569.53;2078774;28;20049;-67
2023/10/16 02:08:16;;;;;;;1.05;0.82;;;;;;;22.63;49.19;98565.78;2078045;28;20464;-67
2023/10/16 02:09:23;;;;;;;3.30;1.48;;;;;;;22.63;48.94;98573.91;2080934;28;20045;-67
2023/10/16 02:10:27;;;;;;;1.92;0.90;;;;;;;22.61;48.98;98571.41;2081176;28;20103;-67
2023/10/16 02:11:28;;;;;;;3.13;1.00;;;;;;;22.60;49.12;98574.38;2082134;28;20057;-66
2023/10/16 02:12:30;;;;;;;1.05;0.85;;;;;;;22.61;48.97;98568.72;2081378;28;20087;-66
2023/10/16 02:13:35;;;;;;;2.60;0.90;;;;;;;22.62;49.06;98574.94;2082082;28;20049;-67
2023/10/16 02:14:39;;;;;;;3.67;0.95;;;;;;;22.63;49.04;98580.13;2078838;28;20049;-66
2023/10/16 02:15:42;;;;;;;3.22;1.27;;;;;;;22.60;48.96;98574.38;2081862;28;20053;-66
2023/10/16 02:16:47;;;;;;;4.32;1.02;;;;;;;22.61;49.07;98582.22;2078782;28;20600;-67
2023/10/16 02:17:49;;;;;;;2.58;1.02;;;;;;;22.62;48.90;98581.19;2079893;28;20454;-66
2023/10/16 02:18:51;;;;;;;2.72;1.02;;;;;;;22.63;48.78;98573.91;2079113;28;20504;-67
2023/10/16 02:19:51;;;;;;;1.85;0.88;;;;;;;22.61;48.91;98578.72;2079605;28;20052;-66
2023/10/16 02:20:54;;;;;;;1.55;1.05;;;;;;;22.63;49.03;98576.63;2081860;28;20049;-66
2023/10/16 02:21:55;;;;;;;1.77;0.80;;;;;;;22.60;48.94;98582.47;2080671;28;20056;-67
2023/10/16 02:22:56;;;;;;;1.38;1.15;;;;;;;22.60;48.89;98579.78;2078751;28;20045;-66
2023/10/16 02:24:03;;;;;;;1.67;0.73;;;;;;;22.60;48.96;98577.91;2079766;28;20486;-67
2023/10/16 02:25:08;;;;;;;3.38;1.15;;;;;;;22.60;49.06;98582.47;2080334;28;20102;-66
2023/10/16 02:26:12;;;;;;;5.40;1.85;;;;;;;22.60;49.09;98580.59;2079558;28;20073;-67
2023/10/16 02:27:14;;;;;;;3.42;0.85;;;;;;;22.60;49.07;98582.47;2078880;28;20132;-67
2023/10/16 02:28:19;;;;;;;0.80;0.80;;;;;;;22.61;48.95;98576.00;2077826;28;20079;-66
2023/10/16 02:29:21;;;;;;;1.85;1.13;;;;;;;22.62;48.99;98577.66;2073414;28;20048;-67
2023/10/16 02:30:28;;;;;;;4.10;0.93;;;;;;;22.63;48.83;98582.84;2081735;28;20799;-66
2023/10/16 02:31:30;;;;;;;2.15;1.02;;;;;;;22.63;49.07;98579.31;2079413;28;20044;-67
2023/10/16 02:32:31;;;;;;;2.38;1.10;;;;;;;22.62;48.95;98581.19;2079154;28;20053;-67
2023/10/16 02:33:35;;;;;;;1.63;0.90;;;;;;;22.63;49.19;98587.44;2080592;28;20078;-67
2023/10/16 02:34:37;;;;;;;1.50;0.80;;;;;;;22.62;49.04;98581.19;2079355;28;20107;-67
2023/10/16 02:35:38;;;;;;;1.92;1.13;;;;;;;22.61;49.00;98578.72;2081422;28;20115;-67
2023/10/16 02:36:40;;;;;;;3.15;0.90;;;;;;;22.61;49.05;98578.72;2082377;28;20539;-67
2023/10/16 02:37:41;;;;;;;2.22;0.80;;;;;;;22.62;49.08;98583.06;2078412;28;20587;-66
2023/10/16 02:38:43;;;;;;;1.02;0.75;;;;;;;22.62;48.88;98574.94;2074693;28;20084;-66
2023/10/16 02:39:50;;;;;;;2.10;1.35;;;;;;;22.62;48.94;98585.75;2078706;28;20056;-66
2023/10/16 02:40:53;;;;;;;2.30;1.20;;;;;;;22.60;48.92;98586.00;2078306;28;20053;-67
2023/10/16 02:41:56;;;;;;;1.60;0.90;;;;;;;22.62;48.89;98588.47;2075103;28;20056;-67
2023/10/16 02:43:00;;;;;;;1.85;0.82;;;;;;;22.60;48.80;98590.59;2074407;28;20419;-67
2023/10/16 02:44:02;;;;;;;1.45;0.80;;;;;;;22.60;48.97;98587.88;2080514;28;20068;-66
2023/10/16 02:45:10;;;;;;;1.80;0.95;;;;;;;22.59;48.82;98588.94;2075038;28;20045;-66
2023/10/16 02:46:12;;;;;;;2.55;0.90;;;;;;;22.57;48.76;98597.28;2081498;28;20045;-66
2023/10/16 02:47:13;;;;;;;2.28;1.40;;;;;;;22.59;48.69;98605.16;2075790;28;20135;-67
2023/10/16 02:48:16;;;;;;;4.43;0.98;;;;;;;22.57;48.46;98604.56;2079091;28;20041;-67
2023/10/16 02:49:18;;;;;;;1.92;1.00;;;;;;;22.58;48.69;98604.31;2077314;28;20045;-67
2023/10/16 02:50:19;;;;;;;1.73;1.00;;;;;;;22.58;48.76;98593.50;2078312;28;20053;-66
2023/10/16 02:51:21;;;;;;;1.15;0.70;;;;;;;22.59;48.63;98605.97;2078921;28;20058;-66
2023/10/16 02:52:22;;;;;;;3.40;0.80;;;;;;;22.58;48.58;98603.50;2079914;28;20049;-66
2023/10/16 02:53:25;;;;;;;2.50;0.60;;;;;;;22.59;48.70;98597.84;2077612;28;20128;-66
2023/10/16 02:54:27;;;;;;;2.58;0.82;;;;;;;22.57;48.39;98605.41;2078885;28;21511;-67
2023/10/16 02:55:28;;;;;;;4.07;0.80;;;;;;;22.57;48.55;98604.56;2079264;28;20061;-66
2023/10/16 02:56:30;;;;;;;2.67;0.77;;;;;;;22.56;48.67;98605.59;2081557;28;20079;-66
2023/10/16 02:57:32;;;;;;;1.70;0.60;;;;;;;22.56;48.51;98606.44;2081971;28;20075;-66
2023/10/16 02:58:38;;;;;;;1.65;0.73;;;;;;;22.57;48.68;98607.28;2076324;28;20053;-66
2023/10/16 02:59:39;;;;;;;1.60;0.77;;;;;;;22.56;48.52;98605.59;2079470;28;20046;-67
2023/10/16 03:00:49;;;;;;;3.55;0.95;;;;;;;22.55;48.32;98601.28;2080090;28;20519;-66
2023/10/16 03:01:50;;;;;;;0.93;0.63;;;;;;;22.52;48.28;98606.06;2079880;28;20516;-66
2023/10/16 03:02:52;;;;;;;1.73;0.60;;;;;;;22.51;48.52;98604.44;2083046;28;20045;-67
2023/10/16 03:03:53;;;;;;;2.88;1.00;;;;;;;22.53;48.59;98609.59;2078205;28;20094;-67
2023/10/16 03:05:09;;;;;;;5.75;1.33;;;;;;;22.54;48.53;98608.56;2080046;28;20041;-67
2023/10/16 03:06:11;;;;;;;1.00;0.70;;;;;;;22.52;48.83;98613.34;2079066;28;20578;-66
2023/10/16 03:07:12;;;;;;;1.48;0.60;;;;;;;22.50;48.37;98613.56;2080616;28;20059;-66
2023/10/16 03:08:13;;;;;;;0.93;0.60;;;;;;;22.52;48.47;98611.47;2081651;28;20061;-66
2023/10/16 03:09:28;;;;;;;2.97;1.23;;;;;;;22.52;48.41;98610.66;2078443;28;20481;-66
2023/10/16 03:10:30;;;;;;;0.80;0.60;;;;;;;22.53;48.41;98617.69;2079126;28;20454;-66
2023/10/16 03:11:32;;;;;;;3.10;0.52;;;;;;;22.53;48.51;98613.13;2082126;28;20111;-66
2023/10/16 03:12:36;;;;;;;0.50;0.50;;;;;;;22.55;48.53;98617.47;2078358;28;20094;-66
2023/10/16 03:13:38;;;;;;;1.00;0.70;;;;;;;22.51;48.28;98615.25;2081506;28;20053;-66
2023/10/16 03:14:45;;;;;;;1.20;0.60;;;;;;;22.53;48.51;98613.13;2080599;28;20061;-67
2023/10/16 03:15:47;;;;;;;0.43;0.40;;;;;;;22.50;48.55;98621.69;2077004;28;20087;-66
2023/10/16 03:16:48;;;;;;;4.43;0.70;;;;;;;22.48;48.46;98625.66;2081546;28;20045;-66
2023/10/16 03:17:50;;;;;;;1.60;0.90;;;;;;;22.48;48.43;98621.13;2079529;28;20519;-67
2023/10/16 03:18:51;;;;;;;2.00;0.80;;;;;;;22.51;48.57;98625.22;2074537;28;20476;-66
2023/10/16 03:19:55;;;;;;;1.92;0.52;;;;;;;22.51;48.55;98631.47;2069669;28;20048;-67
2023/10/16 03:21:04;;;;;;;2.67;0.45;;;;;;;22.51;48.12;98625.22;2078340;28;20076;-67
2023/10/16 03:22:11;;;;;;;2.17;0.70;;;;;;;22.49;48.27;98628.16;2081778;28;20422;-67
2023/10/16 03:23:13;;;;;;;5.20;0.80;;;;;;;22.50;48.28;98624.38;2081507;28;20052;-66
2023/10/16 03:24:19;;;;;;;3.03;1.00;;;;;;;22.51;48.48;98626.06;2077479;28;20041;-66
2023/10/16 03:25:28;;;;;;;0.90;0.57;;;;;;;22.47;48.23;98637.53;2079513;28;20052;-67
2023/10/16 03:26:31;;;;;;;0.82;0.50;;;;;;;22.49;48.24;98625.44;2079461;28;20049;-66
2023/10/16 03:27:32;;;;;;;1.65;0.50;;;;;;;22.50;48.49;98631.69;2080814;28;20419;-66
2023/10/16 03:28:37;;;;;;;1.50;0.30;;;;;;;22.50;48.35;98629.78;2077949;28;20053;-66
2023/10/16 03:29:37;;;;;;;0.77;0.50;;;;;;;22.49;48.52;98628.16;2079632;28;20072;-66
2023/10/16 03:30:42;;;;;;;2.42;0.70;;;;;;;22.49;48.55;98632.75;2078411;28;20053;-67
2023/10/16 03:31:44;;;;;;;1.40;0.70;;;;;;;22.48;48.15;98625.66;2078835;28;20139;-66
2023/10/16 03:32:45;;;;;;;1.13;0.88;;;;;;;22.49;48.40;98630.84;2083412;28;20049;-67
2023/10/16 03:33:45;;;;;;;2.13;0.80;;;;;;;22.48;48.07;98633.78;2077758;28;20045;-67
2023/10/16 03:34:47;;;;;;;2.63;0.90;;;;;;;22.47;47.88;98635.66;2080297;28;20049;-67
2023/10/16 03:35:49;;;;;;;0.57;0.55;;;;;;;22.49;48.04;98635.44;2076920;28;20052;-66
2023/10/16 03:36:55;;;;;;;1.92;0.60;;;;;;;22.49;48.10;98644.38;2074717;28;20144;-66
2023/10/16 03:37:56;;;;;;;5.03;0.85;;;;;;;22.48;48.02;98637.31;2078526;28;20057;-66
2023/10/16 03:38:59;;;;;;;0.77;0.57;;;;;;;22.48;48.02;98640.03;2077711;28;20423;-66
2023/10/16 03:40:04;;;;;;;1.40;0.60;;;;;;;22.50;48.22;98637.91;2082827;28;20048;-67
2023/10/16 03:41:12;;;;;;;0.80;0.40;;;;;;;22.50;48.09;98639.78;2078002;28;20061;-67
2023/10/16 03:42:17;;;;;;;3.47;0.80;;;;;;;22.47;47.95;98635.66;2078139;28;20056;-66
2023/10/16 03:43:22;;;;;;;2.33;0.88;;;;;;;22.47;48.03;98637.53;2079000;28;20127;-66
2023/10/16 03:44:26;;;;;;;2.42;0.60;;;;;;;22.46;48.27;98639.44;2080082;28;20041;-67
2023/10/16 03:45:28;;;;;;;0.85;0.60;;;;;;;22.46;48.00;98642.13;2078758;28;20116;-66
2023/10/16 03:46:29;;;;;;;1.67;0.60;;;;;;;22.45;48.01;98645.88;2077828;28;20057;-67
2023/10/16 03:47:33;;;;;;;2.95;0.50;;;;;;;22.45;47.92;98640.47;2076217;28;20139;-66
2023/10/16 03:48:35;;;;;;;1.75;0.50;;;;;;;22.43;47.90;98644.47;2081826;28;20053;-66
2023/10/16 03:49:37;;;;;;;1.13;0.52;;;;;;;22.43;48.11;98639.06;2074886;28;20518;-66
2023/10/16 03:50:39;;;;;;;1.40;0.60;;;;;;;22.45;47.76;98642.34;2077356;28;20064;-66
2023/10/16 03:51:39;;;;;;;1.30;0.63;;;;;;;22.43;48.15;98639.06;2075341;28;20045;-66
2023/10/16 03:52:41;;;;;;;0.40;0.40;;;;;;;22.46;48.05;98638.59;2081109;28;20172;-66
2023/10/16 03:53:44;;;;;;;2.05;0.65;;;;;;;22.44;47.92;98644.22;2079981;28;20037;-67
2023/10/16 03:54:45;;;;;;;2.60;0.50;;;;;;;22.43;48.17;98645.28;2076391;28;20068;-66
2023/10/16 03:55:47;;;;;;;1.02;0.50;;;;;;;22.44;47.99;98646.13;2071603;28;20037;-67
2023/10/16 03:56:48;;;;;;;2.30;0.80;;;;;;;22.42;47.96;98645.50;2080827;28;20095;-67
2023/10/16 03:57:51;;;;;;;2.15;0.82;;;;;;;22.43;47.75;98645.28;2077922;28;20116;-67
2023/10/16 03:58:53;;;;;;;1.30;0.60;;;;;;;22.42;48.34;98640.91;2079312;28;20164;-66
2023/10/16 03:59:56;;;;;;;0.35;0.32;;;;;;;22.43;49.41;98645.28;2077573;28;20639;-66
2023/10/16 04:00:57;;;;;;;2.70;0.70;;;;;;;22.42;49.59;98643.63;2077513;28;20052;-66
2023/10/16 04:02:03;;;;;;;1.02;0.77;;;;;;;22.44;49.66;98646.13;2077962;28;20775;-66
2023/10/16 04:03:08;;;;;;;2.22;0.75;;;;;;;22.47;49.93;98645.66;2077634;28;20508;-66
2023/10/16 04:04:12;;;;;;;7.93;1.05;;;;;;;22.49;50.10;98647.06;2079043;28;20051;-66
2023/10/16 04:06:30;;;;;;;7.63;1.17;;;;;;;22.43;49.85;98642.59;2069791;28;20049;-66
2023/10/16 04:07:31;;;;;;;3.13;0.90;;;;;;;22.44;48.84;98646.94;2077804;28;20716;-68
2023/10/16 04:08:33;;;;;;;5.55;1.63;;;;;;;22.47;48.54;98640.25;2081592;28;20478;-67
2023/10/16 04:09:34;;;;;;;14.35;1.00;;;;;;;22.48;47.87;98648.13;2076351;28;20045;-66
2023/10/16 04:10:34;;;;;;;3.95;0.85;;;;;;;22.47;47.81;98646.47;2076147;28;20055;-66
2023/10/16 04:11:37;;;;;;;5.97;1.17;;;;;;;22.48;48.07;98647.28;2077477;28;20519;-67
2023/10/16 04:12:43;;;;;;;3.83;0.60;;;;;;;22.49;47.73;98648.97;2078847;28;20533;-67
2023/10/16 04:13:47;;;;;;;3.20;0.82;;;;;;;22.45;47.39;98643.16;2078188;28;20534;-66
2023/10/16 04:14:55;;;;;;;2.22;0.80;;;;;;;22.43;47.62;98650.69;2078957;28;20504;-66
2023/10/16 04:16:09;;;;;;;6.32;1.17;;;;;;;22.45;47.85;98651.28;2077902;28;20049;-67
2023/10/16 04:17:12;;;;;;;8.68;1.40;;;;;;;22.41;47.54;98651.97;2075905;28;20496;-66
2023/10/16 04:18:27;;;;;;;2.53;0.60;;;;;;;22.38;46.86;98642.44;2076749;28;20708;-66
2023/10/16 04:19:36;;;;;;;2.75;0.90;;;;;;;22.38;47.31;98649.72;2083304;28;20053;-66
2023/10/16 04:20:43;;;;;;;5.80;1.38;;;;;;;22.39;47.09;98646.78;2078241;28;20486;-67
2023/10/16 04:21:45;;;;;;;1.25;0.73;;;;;;;22.39;47.40;98649.50;2079375;28;20041;-66
2023/10/16 04:22:57;;;;;;;2.65;0.57;;;;;;;22.38;47.08;98642.44;2080114;28;20131;-66
2023/10/16 04:23:58;;;;;;;3.60;0.70;;;;;;;22.38;46.92;98645.16;2078724;28;20530;-67
2023/10/16 04:24:59;;;;;;;2.30;0.80;;;;;;;22.39;46.99;98646.78;2078759;28;20071;-67
2023/10/16 04:27:34;;;;;;;1.30;0.43;;;;;;;22.34;46.73;98641.22;2079783;28;20172;-67
2023/10/16 04:29:20;;;;;;;4.80;1.30;;;;;;;22.34;46.65;98641.22;2081806;28;20053;-67
2023/10/16 04:31:43;;;;;;;2.28;0.70;;;;;;;22.29;46.47;98641.94;2077040;28;20045;-66
2023/10/16 04:33:03;;;;;;;6.00;1.13;;;;;;;22.29;47.12;98639.22;2082453;28;20041;-67
2023/10/16 04:34:13;;;;;;;3.58;0.50;;;;;;;22.28;46.71;98634.88;2080567;28;20625;-67
2023/10/16 04:35:51;;;;;;;4.35;0.73;;;;;;;22.31;46.83;98630.88;2079992;28;20114;-66
2023/10/16 04:36:53;;;;;;;3.63;0.70;;;;;;;22.26;46.45;98641.56;2081109;28;20048;-67
2023/10/16 04:37:56;;;;;;;4.03;1.00;;;;;;;22.28;47.06;98628.63;2072155;28;20052;-67
2023/10/16 04:39:19;;;;;;;0.80;0.57;;;;;;;22.32;46.72;98642.53;2079343;28;20045;-67
2023/10/16 04:43:16;;;;;;;2.85;0.82;;;;;;;22.26;46.78;98645.09;2057776;28;20069;-67
2023/10/16 04:44:23;;;;;;;4.10;1.15;;;;;;;22.26;46.30;98642.41;2054008;28;20076;-66
2023/10/16 04:45:24;;;;;;;2.08;0.70;;;;;;;22.26;46.56;98641.56;2080078;28;20341;-67
2023/10/16 04:46:54;;;;;;;2.47;1.13;;;;;;;22.26;46.37;98638.88;2078659;28;20065;-67
2023/10/16 04:47:56;;;;;;;4.07;0.55;;;;;;;22.24;46.24;98638.25;2081373;28;20534;-66
2023/10/16 04:48:58;;;;;;;3.25;0.82;;;;;;;22.26;45.91;98641.56;2074281;28;20060;-67
2023/10/16 04:50:09;;;;;;;4.70;0.80;;;;;;;22.26;46.09;98634.28;2076306;28;20217;-67
2023/10/16 04:51:15;;;;;;;;;;;;;;;22.13;45.93;98637.13;2080661;28;20061;-67
2023/10/16 04:52:36;;;;;;;6.07;1.23;;;;;;;22.17;45.77;98640.19;2082909;28;19929;-66
2023/10/16 04:53:58;;;;;;;3.10;0.70;;;;;;;22.19;46.22;98646.22;2084538;28;20044;-67
2023/10/16 04:55:02;;;;;;;1.08;0.70;;;;;;;22.20;46.30;98642.47;2086716;28;20052;-67
2023/10/16 04:56:15;;;;;;;3.90;0.90;;;;;;;22.21;45.52;98646.81;2079409;28;20056;-66
2023/10/16 04:58:47;;;;;;;1.42;0.52;;;;;;;22.21;46.63;98657.63;2077996;28;21341;-67
2023/10/16 05:00:00;;;;;;;3.20;1.15;;;;;;;22.21;45.81;98655.75;2085308;28;20040;-67
2023/10/16 05:02:34;;;;;;;3.72;0.98;;;;;;;22.20;45.85;98650.56;2081851;28;20033;-67
2023/10/16 05:03:44;;;;;;;4.13;1.52;;;;;;;22.20;45.69;98650.56;2068972;28;21745;-67
2023/10/16 05:05:32;;;;;;;1.63;0.95;;;;;;;22.19;45.92;98647.03;2080208;28;20049;-66
2023/10/16 05:06:38;;;;;;;3.33;0.90;;;;;;;22.16;46.21;98646.66;2080585;28;20045;-66
2023/10/16 05:07:45;;;;;;;2.78;0.60;;;;;;;22.19;45.83;98646.22;2080733;28;20573;-67
2023/10/16 05:09:53;;;;;;;3.15;0.68;;;;;;;22.19;45.87;98647.03;2081224;28;20041;-67
2023/10/16 05:14:22;;;;;;;4.22;1.05;;;;;;;22.17;45.96;98656.38;2070481;28;21919;-67
2023/10/16 05:15:51;;;;;;;4.20;1.02;;;;;;;22.15;45.60;98653.94;2078691;28;20048;-66
2023/10/16 05:17:07;;;;;;;2.92;0.98;;;;;;;22.13;45.64;98655.22;2084096;28;20044;-67
2023/10/16 05:18:12;;;;;;;2.10;1.15;;;;;;;22.16;46.45;98649.34;2081442;28;20096;-66
2023/10/16 05:19:43;;;;;;;2.95;0.75;;;;;;;22.16;45.97;98649.34;2082166;28;20064;-66